createdAt,value
2022-08-06T00:00:03.472Z,1015.21
2022-08-06T00:00:31.914Z,1015.16
2022-08-06T00:01:31.194Z,1015.29
2022-08-06T00:02:32.089Z,1015.32
2022-08-06T00:03:31.733Z,1015.30
2022-08-06T00:04:31.900Z,1015.34
2022-08-06T00:05:35.232Z,1015.28
2022-08-06T00:06:32.552Z,1015.34
2022-08-06T00:07:44.879Z,1015.29
2022-08-06T00:08:34.233Z,1015.29
2022-08-06T00:09:52.023Z,1015.34
2022-08-06T00:10:35.254Z,1015.30
2022-08-06T00:11:34.288Z,1015.30
2022-08-06T00:12:35.955Z,1015.30
2022-08-06T00:13:34.757Z,1015.38
2022-08-06T00:14:35.147Z,1015.33
2022-08-06T00:16:06.107Z,1015.33
2022-08-06T00:16:38.941Z,1015.35
2022-08-06T00:17:36.067Z,1015.32
2022-08-06T00:18:36.317Z,1015.35
2022-08-06T00:19:58.148Z,1015.34
2022-08-06T00:20:41.976Z,1015.37
2022-08-06T00:21:40.792Z,1015.35
2022-08-06T00:22:38.619Z,1015.41
2022-08-06T00:23:52.636Z,1015.43
2022-08-06T00:24:39.149Z,1015.53
2022-08-06T00:25:44.900Z,1015.51
2022-08-06T00:26:39.579Z,1015.48
2022-08-06T00:27:39.941Z,1015.55
2022-08-06T00:28:39.222Z,1015.52
2022-08-06T00:29:44.166Z,1015.57
2022-08-06T00:30:40.722Z,1015.55
2022-08-06T00:31:40.563Z,1015.60
2022-08-06T00:32:40.292Z,1015.62
2022-08-06T00:33:50.007Z,1015.71
2022-08-06T00:34:41.995Z,1015.70
2022-08-06T00:35:41.209Z,1015.78
2022-08-06T00:36:41.468Z,1015.76
2022-08-06T00:37:54.799Z,1015.80
2022-08-06T00:38:43.174Z,1015.74
2022-08-06T00:39:42.433Z,1015.77
2022-08-06T00:40:49.994Z,1015.79
2022-08-06T00:41:46.399Z,1015.82
2022-08-06T00:42:43.266Z,1015.87
2022-08-06T00:43:43.628Z,1015.89
2022-08-06T00:44:43.879Z,1015.93
2022-08-06T00:45:45.886Z,1015.92
2022-08-06T00:46:44.842Z,1015.95
2022-08-06T00:48:02.823Z,1015.96
2022-08-06T00:48:53.319Z,1015.94
2022-08-06T00:49:48.516Z,1015.91
2022-08-06T00:50:45.819Z,1015.89
2022-08-06T00:51:51.140Z,1015.87
2022-08-06T00:52:47.284Z,1015.88
2022-08-06T00:53:48.265Z,1015.93
2022-08-06T00:54:46.892Z,1015.96
2022-08-06T00:55:59.298Z,1015.98
2022-08-06T00:56:48.385Z,1015.94
2022-08-06T00:57:47.653Z,1015.94
2022-08-06T00:58:47.955Z,1015.96
2022-08-06T00:59:48.237Z,1015.92
2022-08-06T01:00:51.574Z,1015.91
2022-08-06T01:01:49.961Z,1015.94
2022-08-06T01:02:49.151Z,1015.91
2022-08-06T01:03:51.307Z,1015.87
2022-08-06T01:04:49.705Z,1015.87
2022-08-06T01:06:06.638Z,1015.82
2022-08-06T01:06:55.305Z,1015.86
2022-08-06T01:07:52.775Z,1015.91
2022-08-06T01:08:50.909Z,1015.88
2022-08-06T01:09:57.809Z,1015.98
2022-08-06T01:10:52.587Z,1016.00
2022-08-06T01:11:52.282Z,1016.00
2022-08-06T01:12:52.118Z,1015.99
2022-08-06T01:14:03.935Z,1015.99
2022-08-06T01:15:02.191Z,1015.99
2022-08-06T01:16:08.991Z,1016.03
2022-08-06T01:16:54.218Z,1016.18
2022-08-06T01:17:56.186Z,1016.17
2022-08-06T01:18:58.913Z,1016.18
2022-08-06T01:21:56.646Z,1016.14
2022-08-06T01:21:58.068Z,1016.16
2022-08-06T01:22:29.547Z,1016.20
2022-08-06T01:22:55.901Z,1016.17
2022-08-06T01:23:55.283Z,1016.10
2022-08-06T01:24:55.492Z,1016.12
2022-08-06T01:25:55.811Z,1016.18
2022-08-06T01:26:56.124Z,1016.14
2022-08-06T01:27:56.626Z,1016.10
2022-08-06T01:28:56.653Z,1016.18
2022-08-06T01:29:56.914Z,1016.13
2022-08-06T01:30:57.201Z,1016.13
2022-08-06T01:31:57.434Z,1016.08
2022-08-06T01:32:57.706Z,1016.13
2022-08-06T01:33:58.054Z,1016.08
2022-08-06T01:34:58.315Z,1016.13
2022-08-06T01:35:58.626Z,1016.14
2022-08-06T01:36:58.937Z,1016.15
2022-08-06T01:37:59.353Z,1016.18
2022-08-06T01:39:01.673Z,1016.17
2022-08-06T01:40:02.842Z,1016.18
2022-08-06T01:41:01.262Z,1016.26
2022-08-06T01:42:00.279Z,1016.25
2022-08-06T01:43:00.557Z,1016.28
2022-08-06T01:44:07.391Z,1016.27
2022-08-06T01:45:02.158Z,1016.24
2022-08-06T01:46:01.489Z,1016.26
2022-08-06T01:47:01.818Z,1016.25
2022-08-06T01:48:02.702Z,1016.21
2022-08-06T01:49:09.164Z,1016.19
2022-08-06T01:50:04.179Z,1016.26
2022-08-06T01:51:02.781Z,1016.23
2022-08-06T01:52:14.738Z,1016.21
2022-08-06T01:53:04.344Z,1016.28
2022-08-06T01:54:06.648Z,1016.33
2022-08-06T01:55:03.973Z,1016.34
2022-08-06T01:56:08.871Z,1016.32
2022-08-06T01:57:04.584Z,1016.31
2022-08-06T01:58:18.930Z,1016.27
2022-08-06T01:59:08.995Z,1016.24
2022-08-06T02:00:05.285Z,1016.26
2022-08-06T02:01:05.738Z,1016.29
2022-08-06T02:02:05.961Z,1016.34
2022-08-06T02:03:06.228Z,1016.38
2022-08-06T02:04:06.526Z,1016.32
2022-08-06T02:05:09.246Z,1016.35
2022-08-06T02:06:07.037Z,1016.29
2022-08-06T02:07:14.192Z,1016.31
2022-08-06T02:08:37.036Z,1016.35
2022-08-06T02:09:22.116Z,1016.39
2022-08-06T02:10:09.852Z,1016.45
2022-08-06T02:12:01.530Z,1016.39
2022-08-06T02:12:10.692Z,1016.46
2022-08-06T02:13:09.731Z,1016.42
2022-08-06T02:14:09.953Z,1016.44
2022-08-06T02:15:09.806Z,1016.42
2022-08-06T02:16:09.912Z,1016.42
2022-08-06T02:17:13.490Z,1016.47
2022-08-06T02:18:10.506Z,1016.41
2022-08-06T02:19:13.600Z,1016.44
2022-08-06T02:20:19.018Z,1016.35
2022-08-06T02:21:19.043Z,1016.36
2022-08-06T02:22:12.672Z,1016.34
2022-08-06T02:23:12.992Z,1016.35
2022-08-06T02:24:12.274Z,1016.41
2022-08-06T02:25:14.638Z,1016.42
2022-08-06T02:26:14.795Z,1016.37
2022-08-06T02:27:13.113Z,1016.38
2022-08-06T02:28:21.619Z,1016.40
2022-08-06T02:29:14.737Z,1016.37
2022-08-06T02:30:14.097Z,1016.38
2022-08-06T02:31:14.337Z,1016.42
2022-08-06T02:32:16.002Z,1016.39
2022-08-06T02:33:18.051Z,1016.46
2022-08-06T02:34:15.175Z,1016.47
2022-08-06T02:35:15.427Z,1016.47
2022-08-06T02:36:26.854Z,1016.47
2022-08-06T02:37:22.957Z,1016.44
2022-08-06T02:38:17.327Z,1016.45
2022-08-06T02:39:18.211Z,1016.45
2022-08-06T02:40:18.359Z,1016.43
2022-08-06T02:41:18.058Z,1016.42
2022-08-06T02:42:17.690Z,1016.40
2022-08-06T02:43:19.720Z,1016.45
2022-08-06T02:44:18.050Z,1016.43
2022-08-06T02:45:18.301Z,1016.42
2022-08-06T02:46:18.651Z,1016.37
2022-08-06T02:47:18.922Z,1016.42
2022-08-06T02:48:22.194Z,1016.43
2022-08-06T02:49:25.802Z,1016.45
2022-08-06T02:50:20.677Z,1016.50
2022-08-06T02:51:43.376Z,1016.49
2022-08-06T02:52:32.919Z,1016.55
2022-08-06T02:55:55.870Z,1016.66
2022-08-06T02:56:55.920Z,1016.66
2022-08-06T02:57:58.139Z,1016.65
2022-08-06T02:58:57.960Z,1016.68
2022-08-06T02:59:56.725Z,1016.73
2022-08-06T03:00:57.135Z,1016.74
2022-08-06T03:01:57.399Z,1016.83
2022-08-06T03:02:57.635Z,1016.85
2022-08-06T03:03:59.715Z,1016.86
2022-08-06T03:04:58.345Z,1016.88
2022-08-06T03:05:58.540Z,1016.87
2022-08-06T03:06:58.865Z,1016.89
2022-08-06T03:07:59.121Z,1016.85
2022-08-06T03:08:59.380Z,1016.93
2022-08-06T03:09:59.620Z,1016.94
2022-08-06T03:10:59.883Z,1016.91
2022-08-06T03:12:00.120Z,1016.95
2022-08-06T03:13:03.751Z,1017.01
2022-08-06T03:14:00.671Z,1016.96
2022-08-06T03:15:07.586Z,1016.97
2022-08-06T03:16:02.257Z,1016.99
2022-08-06T03:17:01.553Z,1017.03
2022-08-06T03:18:03.753Z,1017.00
2022-08-06T03:19:55.584Z,1017.08
2022-08-06T03:20:03.416Z,1017.12
2022-08-06T03:21:02.731Z,1017.10
2022-08-06T03:22:03.053Z,1017.14
2022-08-06T03:23:03.316Z,1017.11
2022-08-06T03:24:03.622Z,1017.06
2022-08-06T03:25:04.003Z,1017.08
2022-08-06T03:26:04.982Z,1017.07
2022-08-06T03:27:04.491Z,1017.14
2022-08-06T03:28:04.742Z,1017.16
2022-08-06T03:29:04.975Z,1017.19
2022-08-06T03:30:05.238Z,1017.21
2022-08-06T03:31:05.478Z,1017.21
2022-08-06T03:32:24.807Z,1017.24
2022-08-06T03:33:28.689Z,1017.21
2022-08-06T03:34:07.337Z,1017.22
2022-08-06T03:35:06.676Z,1017.24
2022-08-06T03:36:07.029Z,1017.25
2022-08-06T03:37:08.248Z,1017.25
2022-08-06T03:38:07.516Z,1017.25
2022-08-06T03:39:07.845Z,1017.25
2022-08-06T03:40:08.106Z,1017.37
2022-08-06T03:41:08.425Z,1017.34
2022-08-06T03:42:09.492Z,1017.41
2022-08-06T03:43:09.105Z,1017.45
2022-08-06T03:44:11.757Z,1017.46
2022-08-06T03:45:09.546Z,1017.40
2022-08-06T03:46:10.866Z,1017.50
2022-08-06T03:47:10.170Z,1017.50
2022-08-06T03:48:10.460Z,1017.53
2022-08-06T03:49:10.773Z,1017.52
2022-08-06T03:50:11.089Z,1017.53
2022-08-06T03:51:11.365Z,1017.54
2022-08-06T03:52:14.670Z,1017.62
2022-08-06T03:53:11.872Z,1017.65
2022-08-06T03:54:13.863Z,1017.65
2022-08-06T03:55:15.336Z,1017.68
2022-08-06T03:56:14.697Z,1017.67
2022-08-06T03:57:13.005Z,1017.74
2022-08-06T03:58:13.235Z,1017.72
2022-08-06T03:59:14.597Z,1017.73
2022-08-06T04:00:13.885Z,1017.72
2022-08-06T04:01:14.172Z,1017.71
2022-08-06T04:02:24.705Z,1017.75
2022-08-06T04:03:15.766Z,1017.76
2022-08-06T04:04:26.413Z,1017.78
2022-08-06T04:05:16.322Z,1017.85
2022-08-06T04:06:16.515Z,1017.79
2022-08-06T04:07:17.373Z,1017.88
2022-08-06T04:08:17.137Z,1017.88
2022-08-06T04:09:17.410Z,1017.87
2022-08-06T04:10:22.603Z,1017.86
2022-08-06T04:12:14.221Z,1017.93
2022-08-06T04:12:54.720Z,1017.87
2022-08-06T04:14:02.913Z,1017.96
2022-08-06T04:14:18.759Z,1017.95
2022-08-06T04:15:19.009Z,1017.93
2022-08-06T04:16:29.573Z,1017.98
2022-08-06T04:17:19.695Z,1017.95
2022-08-06T04:18:18.992Z,1017.94
2022-08-06T04:19:19.243Z,1017.96
2022-08-06T04:20:41.097Z,1017.99
2022-08-06T04:22:57.179Z,1017.99
2022-08-06T04:23:04.977Z,1018.03
2022-08-06T04:23:34.928Z,1018.05
2022-08-06T04:24:21.715Z,1018.10
2022-08-06T04:25:20.946Z,1018.08
2022-08-06T04:26:21.274Z,1018.10
2022-08-06T04:27:21.527Z,1018.09
2022-08-06T04:28:21.834Z,1018.10
2022-08-06T04:29:23.447Z,1018.08
2022-08-06T04:30:22.413Z,1018.09
2022-08-06T04:32:02.838Z,1018.06
2022-08-06T04:32:29.358Z,1018.10
2022-08-06T04:33:34.586Z,1018.05
2022-08-06T04:34:28.461Z,1018.08
2022-08-06T04:36:07.648Z,1018.12
2022-08-06T04:36:25.587Z,1018.14
2022-08-06T04:37:24.220Z,1018.10
2022-08-06T04:38:27.964Z,1018.20
2022-08-06T04:39:37.292Z,1018.15
2022-08-06T04:40:34.461Z,1018.19
2022-08-06T04:41:26.350Z,1018.22
2022-08-06T04:42:25.618Z,1018.22
2022-08-06T04:43:38.757Z,1018.25
2022-08-06T04:44:27.063Z,1018.26
2022-08-06T04:46:15.643Z,1018.24
2022-08-06T04:46:27.752Z,1018.24
2022-08-06T04:47:41.643Z,1018.26
2022-08-06T04:48:28.281Z,1018.23
2022-08-06T04:49:57.593Z,1018.20
2022-08-06T04:50:28.865Z,1018.26
2022-08-06T04:52:34.314Z,1018.30
2022-08-06T04:52:46.441Z,1018.33
2022-08-06T04:53:43.233Z,1018.32
2022-08-06T04:54:30.377Z,1018.33
2022-08-06T04:55:34.870Z,1018.36
2022-08-06T04:56:55.776Z,1018.42
2022-08-06T04:57:33.923Z,1018.40
2022-08-06T04:58:32.982Z,1018.39
2022-08-06T04:59:49.753Z,1018.43
2022-08-06T05:00:34.227Z,1018.42
2022-08-06T05:01:40.751Z,1018.48
2022-08-06T05:02:32.376Z,1018.31
2022-08-06T05:04:05.709Z,1018.39
2022-08-06T05:04:32.987Z,1018.39
2022-08-06T05:05:31.997Z,1018.34
2022-08-06T05:06:32.259Z,1018.41
2022-08-06T05:07:51.464Z,1018.39
2022-08-06T05:08:33.822Z,1018.40
2022-08-06T05:09:42.365Z,1018.52
2022-08-06T05:10:34.369Z,1018.54
2022-08-06T05:11:33.941Z,1018.45
2022-08-06T05:12:34.158Z,1018.50
2022-08-06T05:13:39.256Z,1018.58
2022-08-06T05:14:35.629Z,1018.58
2022-08-06T05:15:41.429Z,1018.62
2022-08-06T05:16:36.172Z,1018.60
2022-08-06T05:17:35.631Z,1018.61
2022-08-06T05:19:21.843Z,1018.54
2022-08-06T05:19:37.095Z,1018.63
2022-08-06T05:20:37.331Z,1018.68
2022-08-06T05:22:05.981Z,1018.66
2022-08-06T05:22:52.411Z,1018.70
2022-08-06T05:23:38.129Z,1018.72
2022-08-06T05:24:39.569Z,1018.69
2022-08-06T05:25:38.586Z,1018.68
2022-08-06T05:26:37.919Z,1018.71
2022-08-06T05:27:54.777Z,1018.77
2022-08-06T05:28:39.436Z,1018.80
2022-08-06T05:29:38.717Z,1018.81
2022-08-06T05:30:39.958Z,1018.82
2022-08-06T05:31:40.583Z,1018.81
2022-08-06T05:32:39.546Z,1018.83
2022-08-06T05:33:41.967Z,1018.86
2022-08-06T05:34:40.151Z,1018.94
2022-08-06T05:36:00.515Z,1018.95
2022-08-06T05:36:43.781Z,1018.98
2022-08-06T05:38:01.277Z,1018.89
2022-08-06T05:38:51.982Z,1018.96
2022-08-06T05:39:58.987Z,1019.00
2022-08-06T05:40:53.564Z,1018.95
2022-08-06T05:41:42.964Z,1018.98
2022-08-06T05:42:42.202Z,1018.99
2022-08-06T05:43:59.824Z,1019.02
2022-08-06T05:44:43.744Z,1019.09
2022-08-06T05:45:43.054Z,1019.06
2022-08-06T05:46:43.327Z,1019.08
2022-08-06T05:47:55.510Z,1019.05
2022-08-06T05:48:45.453Z,1019.05
2022-08-06T05:49:58.435Z,1019.07
2022-08-06T05:50:45.428Z,1019.12
2022-08-06T05:51:45.604Z,1019.11
2022-08-06T05:52:45.037Z,1019.24
2022-08-06T05:54:03.562Z,1019.13
2022-08-06T05:54:46.557Z,1019.18
2022-08-06T05:55:45.858Z,1019.22
2022-08-06T05:56:46.152Z,1019.11
2022-08-06T05:57:53.885Z,1019.19
2022-08-06T05:58:51.389Z,1019.14
2022-08-06T05:59:56.742Z,1019.27
2022-08-06T06:00:48.279Z,1019.26
2022-08-06T06:01:48.551Z,1019.21
2022-08-06T06:02:47.772Z,1019.20
2022-08-06T06:03:48.859Z,1019.15
2022-08-06T06:06:03.450Z,1019.19
2022-08-06T06:06:06.046Z,1019.22
2022-08-06T06:06:49.996Z,1019.22
2022-08-06T06:08:09.170Z,1019.24
2022-08-06T06:08:57.562Z,1019.18
2022-08-06T06:10:03.886Z,1019.19
2022-08-06T06:10:53.168Z,1019.13
2022-08-06T06:12:01.646Z,1019.13
2022-08-06T06:12:52.736Z,1019.19
2022-08-06T06:13:59.223Z,1019.19
2022-08-06T06:14:52.419Z,1019.17
2022-08-06T06:15:59.046Z,1019.19
2022-08-06T06:16:52.927Z,1019.24
2022-08-06T06:17:52.179Z,1019.25
2022-08-06T06:18:55.864Z,1019.22
2022-08-06T06:19:53.383Z,1019.20
2022-08-06T06:20:58.193Z,1019.22
2022-08-06T06:21:54.321Z,1019.17
2022-08-06T06:22:53.650Z,1019.19
2022-08-06T06:23:55.147Z,1019.14
2022-08-06T06:24:54.271Z,1019.07
2022-08-06T06:25:54.597Z,1019.14
2022-08-06T06:26:54.876Z,1019.11
2022-08-06T06:27:55.153Z,1019.12
2022-08-06T06:28:55.484Z,1019.05
2022-08-06T06:30:06.083Z,1019.08
2022-08-06T06:31:02.328Z,1019.08
2022-08-06T06:32:04.067Z,1019.07
2022-08-06T06:32:59.326Z,1019.05
2022-08-06T06:33:56.848Z,1019.06
2022-08-06T06:34:57.029Z,1019.07
2022-08-06T06:35:57.319Z,1019.07
2022-08-06T06:36:58.439Z,1019.10
2022-08-06T06:37:57.987Z,1019.05
2022-08-06T06:38:58.307Z,1019.12
2022-08-06T06:39:58.848Z,1019.08
2022-08-06T06:41:02.930Z,1019.08
2022-08-06T06:42:00.221Z,1019.13
2022-08-06T06:43:00.231Z,1019.06
2022-08-06T06:43:59.690Z,1019.09
2022-08-06T06:45:04.640Z,1019.08
2022-08-06T06:46:33.723Z,1019.05
2022-08-06T06:47:01.513Z,1019.08
2022-08-06T06:48:00.875Z,1019.09
2022-08-06T06:49:01.133Z,1019.12
2022-08-06T06:50:04.040Z,1019.11
2022-08-06T06:51:04.076Z,1019.18
2022-08-06T06:52:08.324Z,1019.18
2022-08-06T06:53:03.391Z,1019.20
2022-08-06T06:54:06.764Z,1019.27
2022-08-06T06:55:05.063Z,1019.16
2022-08-06T06:56:07.187Z,1019.26
2022-08-06T06:57:03.566Z,1019.29
2022-08-06T06:58:04.850Z,1019.28
2022-08-06T06:59:05.121Z,1019.38
2022-08-06T07:00:45.614Z,1019.37
2022-08-06T07:01:12.212Z,1019.39
2022-08-06T07:02:11.348Z,1019.38
2022-08-06T07:03:09.669Z,1019.35
2022-08-06T07:04:06.534Z,1019.38
2022-08-06T07:05:05.732Z,1019.41
2022-08-06T07:06:09.905Z,1019.51
2022-08-06T07:07:07.735Z,1019.52
2022-08-06T07:08:07.623Z,1019.53
2022-08-06T07:09:12.215Z,1019.50
2022-08-06T07:10:11.344Z,1019.48
2022-08-06T07:11:07.510Z,1019.54
2022-08-06T07:12:19.564Z,1019.53
2022-08-06T07:13:15.433Z,1019.58
2022-08-06T07:14:09.995Z,1019.59
2022-08-06T07:15:18.901Z,1019.60
2022-08-06T07:16:09.788Z,1019.59
2022-08-06T07:17:44.949Z,1019.61
2022-08-06T07:18:24.360Z,1019.69
2022-08-06T07:19:11.114Z,1019.76
2022-08-06T07:20:09.869Z,1019.76
2022-08-06T07:21:10.120Z,1019.77
2022-08-06T07:22:10.417Z,1019.79
2022-08-06T07:24:07.305Z,1019.81
2022-08-06T07:24:35.744Z,1019.81
2022-08-06T07:25:16.106Z,1019.87
2022-08-06T07:26:12.523Z,1019.82
2022-08-06T07:27:15.277Z,1019.82
2022-08-06T07:28:13.153Z,1019.89
2022-08-06T07:29:13.432Z,1019.92
2022-08-06T07:30:14.582Z,1019.92
2022-08-06T07:31:12.971Z,1019.88
2022-08-06T07:32:30.873Z,1019.93
2022-08-06T07:33:14.586Z,1019.87
2022-08-06T07:34:16.642Z,1019.90
2022-08-06T07:35:14.237Z,1019.88
2022-08-06T07:36:16.663Z,1019.89
2022-08-06T07:37:15.167Z,1019.94
2022-08-06T07:38:15.127Z,1019.90
2022-08-06T07:39:15.991Z,1019.79
2022-08-06T07:40:15.721Z,1019.78
2022-08-06T07:41:15.898Z,1019.80
2022-08-06T07:42:17.255Z,1019.78
2022-08-06T07:43:23.857Z,1019.88
2022-08-06T07:44:22.248Z,1019.88
2022-08-06T07:45:17.422Z,1019.92
2022-08-06T07:46:17.345Z,1019.93
2022-08-06T07:47:24.931Z,1019.90
2022-08-06T07:48:18.902Z,1019.98
2022-08-06T07:49:18.209Z,1019.95
2022-08-06T07:50:18.457Z,1019.98
2022-08-06T07:51:19.774Z,1019.99
2022-08-06T07:52:20.033Z,1020.04
2022-08-06T07:53:20.292Z,1019.92
2022-08-06T07:54:27.967Z,1020.01
2022-08-06T07:55:21.023Z,1020.02
2022-08-06T07:56:20.203Z,1020.01
2022-08-06T07:57:25.710Z,1019.97
2022-08-06T07:58:23.317Z,1020.00
2022-08-06T07:59:21.974Z,1020.09
2022-08-06T08:00:21.296Z,1020.04
2022-08-06T08:01:21.575Z,1020.04
2022-08-06T08:02:29.653Z,1020.02
2022-08-06T08:03:56.226Z,1020.07
2022-08-06T08:04:34.603Z,1020.05
2022-08-06T08:05:26.242Z,1020.09
2022-08-06T08:06:23.940Z,1020.12
2022-08-06T08:07:37.774Z,1020.10
2022-08-06T08:08:24.836Z,1020.14
2022-08-06T08:09:29.618Z,1020.21
2022-08-06T08:10:28.854Z,1020.18
2022-08-06T08:11:38.210Z,1020.16
2022-08-06T08:12:35.537Z,1020.21
2022-08-06T08:13:40.874Z,1020.21
2022-08-06T08:14:26.373Z,1020.16
2022-08-06T08:15:25.736Z,1020.18
2022-08-06T08:16:28.429Z,1020.16
2022-08-06T08:17:34.767Z,1020.24
2022-08-06T08:18:27.591Z,1020.27
2022-08-06T08:19:26.861Z,1020.17
2022-08-06T08:20:27.813Z,1020.22
2022-08-06T08:21:28.375Z,1020.19
2022-08-06T08:22:27.612Z,1020.22
2022-08-06T08:23:33.388Z,1020.29
2022-08-06T08:24:29.207Z,1020.26
2022-08-06T08:25:42.153Z,1020.30
2022-08-06T08:26:48.887Z,1020.31
2022-08-06T08:27:29.937Z,1020.26
2022-08-06T08:28:29.589Z,1020.34
2022-08-06T08:29:34.594Z,1020.31
2022-08-06T08:30:30.788Z,1020.32
2022-08-06T08:31:30.079Z,1020.36
2022-08-06T08:32:30.351Z,1020.39
2022-08-06T08:33:30.651Z,1020.38
2022-08-06T08:34:30.961Z,1020.37
2022-08-06T08:35:31.142Z,1020.38
2022-08-06T08:36:32.489Z,1020.32
2022-08-06T08:37:32.846Z,1020.29
2022-08-06T08:38:32.041Z,1020.37
2022-08-06T08:39:33.651Z,1020.33
2022-08-06T08:40:32.601Z,1020.38
2022-08-06T08:41:47.992Z,1020.37
2022-08-06T08:42:36.366Z,1020.45
2022-08-06T08:43:58.752Z,1020.42
2022-08-06T08:44:34.691Z,1020.41
2022-08-06T08:45:34.118Z,1020.41
2022-08-06T08:46:37.802Z,1020.48
2022-08-06T08:47:39.025Z,1020.46
2022-08-06T08:48:35.937Z,1020.43
2022-08-06T08:49:35.226Z,1020.50
2022-08-06T08:50:35.540Z,1020.47
2022-08-06T08:51:36.551Z,1020.44
2022-08-06T08:52:37.309Z,1020.45
2022-08-06T08:53:45.091Z,1020.47
2022-08-06T08:54:37.769Z,1020.45
2022-08-06T08:57:06.649Z,1020.48
2022-08-06T08:57:07.018Z,1020.48
2022-08-06T08:58:42.239Z,1020.51
2022-08-06T08:59:56.214Z,1020.41
2022-08-06T08:59:59.252Z,1020.46
2022-08-06T09:00:40.588Z,1020.47
2022-08-06T09:01:52.605Z,1020.44
2022-08-06T09:02:40.167Z,1020.48
2022-08-06T09:03:47.165Z,1020.37
2022-08-06T09:04:40.555Z,1020.38
2022-08-06T09:05:47.408Z,1020.36
2022-08-06T09:06:41.186Z,1020.31
2022-08-06T09:07:40.664Z,1020.40
2022-08-06T09:09:01.498Z,1020.46
2022-08-06T09:09:47.254Z,1020.44
2022-08-06T09:10:42.315Z,1020.38
2022-08-06T09:12:04.868Z,1020.50
2022-08-06T09:12:45.203Z,1020.49
2022-08-06T09:13:51.447Z,1020.47
2022-08-06T09:14:43.556Z,1020.47
2022-08-06T09:15:42.869Z,1020.54
2022-08-06T09:16:50.320Z,1020.48
2022-08-06T09:18:26.660Z,1020.50
2022-08-06T09:18:44.588Z,1020.46
2022-08-06T09:19:43.827Z,1020.47
2022-08-06T09:20:45.996Z,1020.48
2022-08-06T09:21:44.401Z,1020.47
2022-08-06T09:22:45.742Z,1020.44
2022-08-06T09:23:49.534Z,1020.51
2022-08-06T09:24:46.341Z,1020.41
2022-08-06T09:25:51.511Z,1020.37
2022-08-06T09:26:54.412Z,1020.42
2022-08-06T09:27:48.781Z,1020.42
2022-08-06T09:28:46.592Z,1020.48
2022-08-06T09:30:00.827Z,1020.47
2022-08-06T09:30:48.137Z,1020.51
2022-08-06T09:31:47.457Z,1020.49
2022-08-06T09:32:56.808Z,1020.47
2022-08-06T09:34:29.180Z,1020.41
2022-08-06T09:34:50.343Z,1020.43
2022-08-06T09:35:48.556Z,1020.48
2022-08-06T09:36:49.256Z,1020.43
2022-08-06T09:37:54.398Z,1020.49
2022-08-06T09:38:50.570Z,1020.49
2022-08-06T09:40:05.507Z,1020.49
2022-08-06T09:40:51.141Z,1020.42
2022-08-06T09:41:50.470Z,1020.50
2022-08-06T09:42:51.311Z,1020.52
2022-08-06T09:44:03.116Z,1020.41
2022-08-06T09:44:52.319Z,1020.37
2022-08-06T09:45:51.641Z,1020.35
2022-08-06T09:46:52.991Z,1020.38
2022-08-06T09:47:58.334Z,1020.47
2022-08-06T09:49:18.800Z,1020.49
2022-08-06T09:50:00.125Z,1020.43
2022-08-06T09:50:54.210Z,1020.49
2022-08-06T09:51:53.591Z,1020.48
2022-08-06T09:52:55.794Z,1020.49
2022-08-06T09:54:08.964Z,1020.48
2022-08-06T09:54:55.526Z,1020.49
2022-08-06T09:55:58.068Z,1020.45
2022-08-06T09:56:55.108Z,1020.46
2022-08-06T09:57:55.367Z,1020.46
2022-08-06T09:58:55.613Z,1020.54
2022-08-06T09:59:56.078Z,1020.48
2022-08-06T10:00:56.207Z,1020.47
2022-08-06T10:01:56.418Z,1020.51
2022-08-06T10:02:56.779Z,1020.47
2022-08-06T10:04:04.858Z,1020.47
2022-08-06T10:04:58.443Z,1020.49
2022-08-06T10:05:57.696Z,1020.49
2022-08-06T10:06:57.930Z,1020.53
2022-08-06T10:07:58.210Z,1020.53
2022-08-06T10:08:58.472Z,1020.53
2022-08-06T10:09:58.782Z,1020.52
2022-08-06T10:11:02.785Z,1020.52
2022-08-06T10:12:00.343Z,1020.56
2022-08-06T10:12:59.689Z,1020.50
2022-08-06T10:13:59.995Z,1020.59
2022-08-06T10:15:01.163Z,1020.56
2022-08-06T10:16:04.265Z,1020.57
2022-08-06T10:17:00.788Z,1020.53
2022-08-06T10:18:00.971Z,1020.54
2022-08-06T10:19:18.662Z,1020.54
2022-08-06T10:20:02.532Z,1020.56
2022-08-06T10:21:01.952Z,1020.54
2022-08-06T10:22:03.258Z,1020.57
2022-08-06T10:23:02.459Z,1020.65
2022-08-06T10:24:02.740Z,1020.62
2022-08-06T10:25:12.401Z,1020.67
2022-08-06T10:26:04.253Z,1020.67
2022-08-06T10:27:03.571Z,1020.69
2022-08-06T10:28:03.919Z,1020.66
2022-08-06T10:29:04.163Z,1020.64
2022-08-06T10:30:04.452Z,1020.65
2022-08-06T10:31:04.694Z,1020.64
2022-08-06T10:32:05.126Z,1020.67
2022-08-06T10:33:08.566Z,1020.64
2022-08-06T10:34:06.537Z,1020.66
2022-08-06T10:35:14.608Z,1020.68
2022-08-06T10:36:08.685Z,1020.66
2022-08-06T10:37:07.877Z,1020.62
2022-08-06T10:38:14.575Z,1020.65
2022-08-06T10:40:07.082Z,1020.57
2022-08-06T10:40:11.250Z,1020.58
2022-08-06T10:41:07.661Z,1020.54
2022-08-06T10:42:21.554Z,1020.50
2022-08-06T10:43:12.560Z,1020.51
2022-08-06T10:44:08.334Z,1020.43
2022-08-06T10:45:13.123Z,1020.47
2022-08-06T10:46:11.614Z,1020.53
2022-08-06T10:47:09.268Z,1020.52
2022-08-06T10:48:59.449Z,1020.53
2022-08-06T10:50:25.369Z,1020.55
2022-08-06T10:50:32.216Z,1020.49
2022-08-06T10:51:11.285Z,1020.51
2022-08-06T10:52:10.681Z,1020.54
2022-08-06T10:53:11.043Z,1020.57
2022-08-06T10:54:19.896Z,1020.50
2022-08-06T10:55:12.582Z,1020.48
2022-08-06T10:56:12.280Z,1020.48
2022-08-06T10:57:12.147Z,1020.50
2022-08-06T10:58:13.547Z,1020.48
2022-08-06T10:59:15.493Z,1020.53
2022-08-06T11:00:13.945Z,1020.52
2022-08-06T11:01:14.342Z,1020.47
2022-08-06T11:02:17.197Z,1020.50
2022-08-06T11:03:14.060Z,1020.46
2022-08-06T11:04:14.534Z,1020.49
2022-08-06T11:05:21.036Z,1020.45
2022-08-06T11:06:15.719Z,1020.46
2022-08-06T11:08:09.327Z,1020.49
2022-08-06T11:08:21.772Z,1020.44
2022-08-06T11:09:16.699Z,1020.48
2022-08-06T11:10:16.020Z,1020.48
2022-08-06T11:11:19.833Z,1020.41
2022-08-06T11:12:17.500Z,1020.46
2022-08-06T11:13:16.811Z,1020.44
2022-08-06T11:14:19.166Z,1020.45
2022-08-06T11:15:17.442Z,1020.43
2022-08-06T11:16:17.701Z,1020.43
2022-08-06T11:17:19.032Z,1020.44
2022-08-06T11:18:22.092Z,1020.47
2022-08-06T11:19:19.592Z,1020.41
2022-08-06T11:20:18.983Z,1020.35
2022-08-06T11:21:19.225Z,1020.38
2022-08-06T11:22:19.482Z,1020.34
2022-08-06T11:23:52.361Z,1020.31
2022-08-06T11:24:21.113Z,1020.37
2022-08-06T11:25:26.489Z,1020.35
2022-08-06T11:26:21.617Z,1020.33
2022-08-06T11:27:21.948Z,1020.38
2022-08-06T11:28:21.164Z,1020.36
2022-08-06T11:29:21.503Z,1020.37
2022-08-06T11:30:26.519Z,1020.36
2022-08-06T11:31:22.051Z,1020.37
2022-08-06T11:32:22.420Z,1020.39
2022-08-06T11:33:23.310Z,1020.35
2022-08-06T11:34:27.201Z,1020.37
2022-08-06T11:35:24.146Z,1020.35
2022-08-06T11:36:23.414Z,1020.33
2022-08-06T11:38:01.123Z,1020.30
2022-08-06T11:38:26.509Z,1020.32
2022-08-06T11:39:25.003Z,1020.29
2022-08-06T11:40:25.589Z,1020.27
2022-08-06T11:41:54.641Z,1020.32
2022-08-06T11:42:26.382Z,1020.30
2022-08-06T11:43:26.894Z,1020.38
2022-08-06T11:44:27.311Z,1020.35
2022-08-06T11:46:20.993Z,1020.33
2022-08-06T11:46:31.634Z,1020.37
2022-08-06T11:47:36.542Z,1020.36
2022-08-06T11:48:32.963Z,1020.43
2022-08-06T11:49:28.277Z,1020.44
2022-08-06T11:50:27.838Z,1020.40
2022-08-06T11:51:27.958Z,1020.38
2022-08-06T11:52:29.172Z,1020.34
2022-08-06T11:53:29.643Z,1020.37
2022-08-06T11:54:29.697Z,1020.29
2022-08-06T11:55:29.019Z,1020.36
2022-08-06T11:56:29.300Z,1020.27
2022-08-06T11:57:40.586Z,1020.37
2022-08-06T11:58:30.781Z,1020.33
2022-08-06T11:59:30.112Z,1020.30
2022-08-06T12:00:30.394Z,1020.25
2022-08-06T12:01:33.379Z,1020.30
2022-08-06T12:02:31.076Z,1020.23
2022-08-06T12:03:44.321Z,1020.31
2022-08-06T12:04:32.495Z,1020.31
2022-08-06T12:05:31.794Z,1020.34
2022-08-06T12:06:32.054Z,1020.31
2022-08-06T12:07:33.209Z,1020.33
2022-08-06T12:08:42.600Z,1020.37
2022-08-06T12:09:35.934Z,1020.35
2022-08-06T12:10:34.048Z,1020.40